Time;durP1;ratioP1;P1;durP2;ratioP2;P2;SDS_P1;SDS_P2;PMS_P1;PMS_P2;Temp;Humidity;BMP_temperature;BMP_pressure;BME280_temperature;BME280_humidity;BME280_pressure;Samples;Min_cycle;Max_cycle;Signal;HPM_P1;HPM_P2
2021/03/28 00:00:18;;;;;;;8.00;2.67;;;7.40;94.60;;;;;;5030166;28;20761;-75
2021/03/28 00:02:58;;;;;;;11.05;3.17;;;7.50;94.30;;;;;;5016715;28;20189;-74
2021/03/28 00:05:34;;;;;;;9.30;2.63;;;7.50;94.40;;;;;;5030092;28;20219;-74
2021/03/28 00:08:13;;;;;;;8.75;2.95;;;7.50;94.50;;;;;;5027992;28;20714;-74
2021/03/28 00:10:48;;;;;;;13.65;3.83;;;7.50;94.30;;;;;;5031684;28;20254;-75
2021/03/28 00:13:18;;;;;;;8.98;3.80;;;7.60;94.30;;;;;;5029721;28;20225;-74
2021/03/28 00:16:06;;;;;;;7.93;3.08;;;7.60;94.20;;;;;;5031006;28;20223;-74
2021/03/28 00:19:18;;;;;;;5.05;2.47;;;7.60;94.00;;;;;;5029793;28;20212;-74
2021/03/28 00:21:53;;;;;;;6.03;2.28;;;7.60;94.10;;;;;;5031501;28;20600;-74
2021/03/28 00:24:31;;;;;;;6.72;3.33;;;7.60;94.20;;;;;;5028878;28;20262;-74
2021/03/28 00:27:19;;;;;;;8.68;2.80;;;7.50;94.30;;;;;;5029855;28;20227;-74
2021/03/28 00:29:58;;;;;;;11.80;2.42;;;7.60;94.00;;;;;;5023646;28;20216;-74
2021/03/28 00:32:41;;;;;;;3.95;2.55;;;7.70;94.00;;;;;;5031381;28;20221;-75
2021/03/28 00:35:11;;;;;;;5.00;2.95;;;7.60;94.60;;;;;;5029210;28;20586;-74
2021/03/28 00:37:42;;;;;;;4.47;2.50;;;7.60;94.20;;;;;;5025809;28;20198;-73
2021/03/28 00:40:08;;;;;;;4.80;2.30;;;7.60;94.20;;;;;;5027110;28;20315;-75
2021/03/28 00:42:40;;;;;;;6.40;2.25;;;7.70;94.10;;;;;;5029701;28;20263;-75
2021/03/28 00:45:28;;;;;;;4.72;2.22;;;7.60;94.60;;;;;;5029534;28;20217;-75
2021/03/28 00:48:24;;;;;;;6.30;2.30;;;7.70;94.20;;;;;;5030685;28;20283;-74
2021/03/28 00:51:12;;;;;;;6.28;2.17;;;7.70;94.00;;;;;;5000656;28;20196;-75
2021/03/28 00:53:57;;;;;;;4.32;1.63;;;7.70;94.00;;;;;;5024264;28;20590;-75
2021/03/28 00:56:51;;;;;;;8.38;1.60;;;7.70;93.90;;;;;;5027009;28;20212;-74
2021/03/28 00:59:32;;;;;;;7.43;1.70;;;7.70;93.90;;;;;;5021203;28;20241;-75
2021/03/28 01:02:29;;;;;;;4.50;1.73;;;7.80;93.80;;;;;;5033845;28;20178;-74
2021/03/28 01:05:02;;;;;;;5.95;1.88;;;7.80;93.70;;;;;;5033979;28;20240;-74
2021/03/28 01:07:41;;;;;;;7.75;1.58;;;7.80;93.40;;;;;;5024329;28;20244;-74
2021/03/28 01:10:40;;;;;;;4.07;1.63;;;7.80;93.60;;;;;;5034229;28;20244;-74
2021/03/28 01:13:26;;;;;;;3.13;1.85;;;7.80;93.70;;;;;;5032116;28;20227;-74
2021/03/28 01:16:16;;;;;;;4.28;2.05;;;7.80;94.40;;;;;;5029357;28;20204;-75
2021/03/28 01:19:20;;;;;;;8.23;2.35;;;7.80;94.80;;;;;;5019934;28;20212;-74
2021/03/28 01:22:23;;;;;;;11.02;3.13;;;7.70;95.60;;;;;;5029195;28;20547;-74
2021/03/28 01:24:49;;;;;;;8.90;2.67;;;7.70;95.40;;;;;;5029155;28;20692;-74
2021/03/28 01:27:29;;;;;;;8.77;3.28;;;7.70;95.90;;;;;;5024702;28;20185;-75
2021/03/28 01:29:59;;;;;;;4.88;2.90;;;7.60;95.40;;;;;;5024407;28;20438;-74
2021/03/28 01:32:47;;;;;;;8.35;3.70;;;7.70;95.80;;;;;;5034020;28;20275;-74
2021/03/28 01:35:13;;;;;;;9.15;3.60;;;7.60;96.10;;;;;;5032131;28;20223;-75
2021/03/28 01:37:47;;;;;;;13.80;3.83;;;7.60;96.50;;;;;;5029811;28;20200;-74
2021/03/28 01:40:42;;;;;;;6.55;3.30;;;7.60;96.50;;;;;;5030316;28;20301;-74
2021/03/28 01:43:35;;;;;;;7.75;3.35;;;7.50;97.00;;;;;;5031899;28;20628;-75
2021/03/28 01:46:09;;;;;;;8.23;3.08;;;7.40;96.90;;;;;;5030160;28;20635;-74
2021/03/28 01:48:41;;;;;;;6.68;3.38;;;7.30;96.90;;;;;;5032997;28;20221;-75
2021/03/28 01:51:35;;;;;;;8.40;2.78;;;7.30;97.40;;;;;;5033505;28;20185;-74
2021/03/28 01:54:07;;;;;;;7.72;3.47;;;7.20;98.00;;;;;;5030285;28;20564;-75
2021/03/28 01:56:52;;;;;;;10.65;3.80;;;7.00;98.50;;;;;;5021329;28;20225;-74
2021/03/28 01:59:21;;;;;;;7.75;3.05;;;7.00;98.80;;;;;;5023980;28;20222;-74
2021/03/28 02:02:26;;;;;;;5.13;2.53;;;6.90;99.10;;;;;;5033564;28;20259;-75
2021/03/28 02:05:14;;;;;;;7.82;2.67;;;6.70;99.60;;;;;;5031362;28;20594;-75
2021/03/28 02:07:58;;;;;;;7.00;2.65;;;6.70;99.70;;;;;;5028228;28;20236;-75
2021/03/28 02:11:02;;;;;;;5.07;2.63;;;6.60;99.90;;;;;;5023632;28;20221;-74
2021/03/28 02:13:36;;;;;;;5.80;2.88;;;6.60;99.90;;;;;;5014356;28;20221;-74
2021/03/28 02:16:12;;;;;;;7.30;2.97;;;6.40;99.90;;;;;;5031513;28;20256;-75
2021/03/28 02:19:09;;;;;;;6.55;2.85;;;6.30;99.90;;;;;;5032762;28;20212;-74
2021/03/28 02:21:50;;;;;;;6.40;2.40;;;6.30;99.90;;;;;;5017110;28;20635;-75
2021/03/28 02:24:39;;;;;;;6.18;2.72;;;6.20;99.90;;;;;;5032289;28;20315;-74
2021/03/28 02:27:36;;;;;;;6.22;2.72;;;6.20;99.90;;;;;;5032955;28;20639;-76
2021/03/28 02:30:18;;;;;;;8.23;3.35;;;6.10;99.90;;;;;;5034935;28;20216;-75
2021/03/28 02:33:27;;;;;;;6.70;2.70;;;6.00;99.90;;;;;;5048665;28;20181;-75
2021/03/28 02:36:15;;;;;;;8.73;2.95;;;5.80;99.90;;;;;;5039819;28;20296;-75
2021/03/28 02:39:07;;;;;;;5.43;2.72;;;5.80;99.90;;;;;;5049708;28;20208;-74
2021/03/28 02:41:46;;;;;;;8.02;2.90;;;5.70;99.90;;;;;;5052606;28;20185;-75
2021/03/28 02:44:53;;;;;;;5.55;3.42;;;5.70;99.90;;;;;;5050240;28;20706;-75
2021/03/28 02:47:37;;;;;;;8.63;2.63;;;5.70;99.90;;;;;;5052219;28;20188;-74
2021/03/28 02:50:28;;;;;;;6.65;2.03;;;5.60;99.90;;;;;;5050797;28;20262;-76
2021/03/28 02:53:10;;;;;;;6.38;3.00;;;5.60;99.90;;;;;;5049633;28;20204;-76
2021/03/28 02:56:02;;;;;;;7.38;2.38;;;5.60;99.90;;;;;;5045473;28;20232;-74
2021/03/28 02:59:02;;;;;;;5.68;2.70;;;5.60;99.90;;;;;;5049522;28;20244;-76
2021/03/28 03:02:06;;;;;;;6.35;2.55;;;5.60;99.90;;;;;;5052536;28;20179;-75
2021/03/28 03:04:48;;;;;;;5.43;2.65;;;5.60;99.90;;;;;;5050683;28;20326;-75
2021/03/28 03:07:27;;;;;;;5.60;2.42;;;5.60;99.90;;;;;;5047661;28;20577;-75
2021/03/28 03:10:26;;;;;;;3.03;2.35;;;5.70;99.90;;;;;;5051482;28;20299;-75
2021/03/28 03:13:35;;;;;;;3.33;2.22;;;5.80;99.90;;;;;;5033454;28;20184;-75
2021/03/28 03:16:14;;;;;;;4.25;2.05;;;5.80;99.90;;;;;;5048272;28;20278;-74
2021/03/28 03:19:01;;;;;;;6.63;1.73;;;5.90;99.90;;;;;;5045334;28;20219;-74
2021/03/28 03:21:40;;;;;;;4.18;2.20;;;6.00;99.90;;;;;;5065082;28;20180;-74
2021/03/28 03:24:38;;;;;;;5.95;2.03;;;6.00;99.90;;;;;;5046403;28;20224;-75
2021/03/28 03:27:23;;;;;;;2.60;1.77;;;6.10;99.90;;;;;;5027633;28;20309;-75
2021/03/28 03:29:50;;;;;;;4.72;1.85;;;6.10;99.90;;;;;;5048713;28;20211;-75
2021/03/28 03:32:22;;;;;;;4.93;1.75;;;6.10;99.90;;;;;;5051631;28;20271;-75
2021/03/28 03:35:25;;;;;;;4.93;1.88;;;6.20;99.90;;;;;;5049645;28;20682;-74
2021/03/28 03:37:57;;;;;;;3.85;2.88;;;6.20;99.90;;;;;;5021300;28;20178;-75
2021/03/28 03:40:36;;;;;;;6.68;2.45;;;6.30;99.90;;;;;;5046005;28;20185;-75
2021/03/28 03:43:23;;;;;;;3.10;1.42;;;6.30;99.90;;;;;;5050380;28;20246;-75
2021/03/28 03:46:04;;;;;;;8.27;2.42;;;6.30;99.90;;;;;;5038140;28;20203;-74
2021/03/28 03:48:48;;;;;;;2.03;1.50;;;6.30;99.90;;;;;;5050823;28;20215;-76
2021/03/28 03:51:46;;;;;;;5.72;1.90;;;6.40;99.90;;;;;;5050454;28;20260;-73
2021/03/28 03:54:15;;;;;;;3.97;1.70;;;6.40;99.90;;;;;;5040600;28;20725;-75
2021/03/28 03:56:48;;;;;;;4.53;2.05;;;6.40;99.90;;;;;;5051280;28;20180;-75
2021/03/28 03:59:42;;;;;;;3.20;1.83;;;6.50;99.90;;;;;;5042177;28;20213;-73
2021/03/28 04:02:42;;;;;;;6.38;2.42;;;6.50;99.90;;;;;;5050204;28;20676;-74
2021/03/28 04:05:20;;;;;;;4.55;2.00;;;6.50;99.90;;;;;;5050570;28;20286;-75
2021/03/28 04:07:52;;;;;;;3.08;2.63;;;6.50;99.90;;;;;;5045064;28;20212;-77
2021/03/28 04:10:30;;;;;;;6.25;1.95;;;6.50;99.90;;;;;;5051029;28;20277;-75
2021/03/28 04:13:05;;;;;;;5.20;2.53;;;6.50;99.90;;;;;;5051157;28;20188;-75
2021/03/28 04:16:01;;;;;;;5.53;2.25;;;6.60;99.90;;;;;;5042995;28;20265;-75
2021/03/28 04:18:43;;;;;;;3.35;1.70;;;6.60;99.90;;;;;;5035561;28;20690;-74
2021/03/28 04:21:40;;;;;;;8.20;2.10;;;6.70;99.90;;;;;;5050255;28;20239;-74
2021/03/28 04:24:49;;;;;;;9.75;2.30;;;6.80;99.90;;;;;;5048356;28;20216;-74
2021/03/28 04:27:31;;;;;;;6.00;1.50;;;6.80;99.90;;;;;;5050842;28;20227;-75
2021/03/28 04:29:58;;;;;;;5.15;2.15;;;6.80;99.90;;;;;;5056800;28;20216;-75
2021/03/28 04:32:44;;;;;;;6.72;2.15;;;6.80;99.90;;;;;;5051048;28;20268;-76
2021/03/28 04:35:31;;;;;;;7.22;1.77;;;6.80;99.90;;;;;;5051349;28;20255;-74
2021/03/28 04:38:05;;;;;;;3.65;1.30;;;6.80;99.90;;;;;;5052355;28;20246;-76
2021/03/28 04:41:06;;;;;;;4.65;2.00;;;6.90;99.90;;;;;;5053345;28;20215;-75
2021/03/28 04:44:17;;;;;;;3.40;1.70;;;6.80;99.90;;;;;;5052622;28;20353;-75
2021/03/28 04:47:25;;;;;;;8.88;1.80;;;6.90;99.90;;;;;;5047809;28;20530;-74
2021/03/28 04:50:11;;;;;;;5.50;1.95;;;6.90;99.90;;;;;;5054313;28;20212;-75
2021/03/28 04:52:49;;;;;;;4.15;2.20;;;7.00;99.90;;;;;;5046340;28;20192;-75
2021/03/28 04:55:28;;;;;;;4.28;1.48;;;7.00;99.90;;;;;;5031375;28;20606;-74
2021/03/28 04:57:57;;;;;;;7.97;2.25;;;7.00;99.90;;;;;;5033134;28;20590;-74
2021/03/28 05:00:37;;;;;;;5.78;1.50;;;7.00;99.90;;;;;;5033217;28;20193;-74
2021/03/28 05:03:14;;;;;;;3.50;1.83;;;7.00;99.90;;;;;;5033871;28;20279;-74
2021/03/28 05:06:05;;;;;;;7.07;2.65;;;6.90;99.90;;;;;;5034148;28;20201;-75
2021/03/28 05:08:54;;;;;;;4.57;2.13;;;7.00;99.90;;;;;;5023099;28;20247;-78
2021/03/28 05:11:43;;;;;;;6.03;2.85;;;7.00;99.90;;;;;;5034547;28;20208;-74
2021/03/28 05:14:21;;;;;;;8.32;3.20;;;7.00;99.90;;;;;;5025305;28;20320;-75
2021/03/28 05:16:48;;;;;;;6.95;3.67;;;6.90;99.90;;;;;;5034006;28;20245;-74
2021/03/28 05:19:52;;;;;;;11.52;4.10;;;6.90;99.90;;;;;;5033436;28;20267;-75
2021/03/28 05:22:30;;;;;;;10.05;3.70;;;7.00;99.90;;;;;;5032742;28;20551;-76
2021/03/28 05:25:18;;;;;;;13.88;3.55;;;6.90;99.90;;;;;;5021473;28;20327;-75
2021/03/28 05:28:06;;;;;;;7.78;3.03;;;6.90;99.90;;;;;;5034080;28;20602;-74
2021/03/28 05:31:06;;;;;;;8.40;3.40;;;6.90;99.90;;;;;;5052966;28;20291;-75
2021/03/28 05:33:47;;;;;;;8.52;4.07;;;6.90;99.90;;;;;;5053306;28;20715;-74
2021/03/28 05:36:40;;;;;;;9.82;3.17;;;7.00;99.90;;;;;;5053395;28;20260;-74
2021/03/28 05:39:19;;;;;;;5.53;2.42;;;7.00;99.90;;;;;;5037544;28;20252;-74
2021/03/28 05:42:18;;;;;;;8.35;2.83;;;7.10;99.90;;;;;;5052534;28;20242;-74
2021/03/28 05:45:12;;;;;;;9.35;3.33;;;7.10;99.90;;;;;;5038099;28;20593;-74
2021/03/28 05:48:03;;;;;;;11.35;4.00;;;7.20;99.90;;;;;;5052033;28;20185;-74
2021/03/28 05:51:05;;;;;;;6.45;2.88;;;7.20;99.90;;;;;;5043924;28;20298;-75
2021/03/28 05:54:17;;;;;;;6.05;3.75;;;7.20;99.90;;;;;;5051429;28;20211;-74
2021/03/28 05:57:21;;;;;;;7.03;3.15;;;7.30;99.90;;;;;;5053249;28;20204;-74
2021/03/28 06:00:20;;;;;;;9.02;3.20;;;7.40;99.90;;;;;;5047700;28;20271;-76
2021/03/28 06:03:24;;;;;;;11.38;3.15;;;7.30;99.90;;;;;;5038342;28;20218;-76
2021/03/28 06:06:05;;;;;;;8.57;3.65;;;7.40;99.90;;;;;;5052621;28;20721;-75
2021/03/28 06:08:59;;;;;;;6.32;3.55;;;7.40;99.90;;;;;;5060361;28;20286;-74
2021/03/28 06:11:54;;;;;;;6.20;3.50;;;7.50;99.90;;;;;;5051694;28;20208;-74
2021/03/28 06:15:00;;;;;;;13.82;4.95;;;7.60;99.90;;;;;;5052087;28;20259;-74
2021/03/28 06:18:18;;;;;;;5.68;3.00;;;7.60;99.90;;;;;;5052270;28;20208;-76
2021/03/28 06:20:54;;;;;;;8.55;3.22;;;7.70;99.90;;;;;;5007637;28;20209;-75
2021/03/28 06:23:39;;;;;;;5.78;3.05;;;7.80;99.90;;;;;;5050751;28;20212;-74
2021/03/28 06:26:34;;;;;;;8.15;3.25;;;7.80;99.90;;;;;;5051826;28;20200;-75
2021/03/28 06:29:15;;;;;;;7.05;4.43;;;7.80;99.90;;;;;;5051129;28;20208;-74
2021/03/28 06:31:54;;;;;;;5.75;4.05;;;7.80;99.90;;;;;;5039548;28;20200;-75
2021/03/28 06:34:52;;;;;;;12.48;4.10;;;7.80;99.90;;;;;;5051655;28;20216;-76
2021/03/28 06:37:43;;;;;;;6.43;3.40;;;7.80;99.90;;;;;;5048605;28;20553;-75
2021/03/28 06:40:39;;;;;;;8.82;3.50;;;7.90;99.90;;;;;;5050302;28;20220;-75
2021/03/28 06:43:06;;;;;;;4.65;3.40;;;7.90;99.90;;;;;;5050171;28;20192;-75
2021/03/28 06:45:57;;;;;;;8.23;3.95;;;7.90;99.90;;;;;;5043617;28;20561;-75
2021/03/28 06:49:01;;;;;;;8.27;3.22;;;8.00;99.90;;;;;;5051741;28;20632;-75
2021/03/28 06:51:30;;;;;;;9.55;3.35;;;8.00;99.90;;;;;;5051404;28;20208;-77
2021/03/28 06:54:12;;;;;;;7.32;3.10;;;8.00;99.90;;;;;;5043475;28;20678;-74
2021/03/28 06:57:03;;;;;;;6.68;3.05;;;8.10;99.90;;;;;;5034417;28;20181;-76
2021/03/28 06:59:57;;;;;;;6.38;2.45;;;8.20;99.90;;;;;;5041230;28;20212;-75
2021/03/28 07:02:46;;;;;;;11.35;2.85;;;8.30;99.90;;;;;;5042383;28;20546;-76
2021/03/28 07:05:45;;;;;;;7.78;3.50;;;8.30;99.90;;;;;;5050431;28;20220;-74
2021/03/28 07:08:32;;;;;;;6.97;3.50;;;8.30;99.90;;;;;;5022616;28;20220;-74
2021/03/28 07:11:23;;;;;;;5.28;3.30;;;8.40;99.90;;;;;;5050224;28;20197;-74
2021/03/28 07:13:55;;;;;;;12.05;3.65;;;8.40;99.90;;;;;;5037808;28;20230;-75
2021/03/28 07:16:52;;;;;;;8.23;2.70;;;8.40;99.90;;;;;;5051500;28;21653;-75
2021/03/28 07:19:43;;;;;;;7.85;4.03;;;8.60;99.90;;;;;;5051294;28;20271;-75
2021/03/28 07:22:41;;;;;;;7.32;3.10;;;8.60;99.90;;;;;;5042141;28;20551;-74
2021/03/28 07:25:27;;;;;;;8.45;3.58;;;8.60;99.90;;;;;;5048740;28;20301;-74
2021/03/28 07:28:27;;;;;;;9.73;4.05;;;8.70;99.90;;;;;;5050736;28;20812;-75
2021/03/28 07:31:26;;;;;;;7.18;4.13;;;8.70;99.90;;;;;;5047083;28;20192;-76
2021/03/28 07:34:08;;;;;;;5.70;3.47;;;8.80;99.90;;;;;;5049464;28;20212;-78
2021/03/28 07:37:15;;;;;;;8.40;4.15;;;9.00;99.90;;;;;;5049959;28;20197;-75
2021/03/28 07:40:25;;;;;;;7.32;4.45;;;9.00;99.90;;;;;;5049684;28;20316;-74
2021/03/28 07:43:31;;;;;;;7.32;4.15;;;9.30;99.90;;;;;;5049774;28;20285;-74
2021/03/28 07:46:16;;;;;;;14.20;4.80;;;9.70;99.90;;;;;;5039183;28;20211;-75
2021/03/28 07:49:24;;;;;;;7.90;3.73;;;9.80;99.90;;;;;;5050545;28;21062;-75
2021/03/28 07:52:12;;;;;;;7.13;3.37;;;10.10;99.90;;;;;;5029844;28;20552;-74
2021/03/28 07:55:24;;;;;;;6.93;3.10;;;10.60;98.50;;;;;;5043258;28;20498;-75
2021/03/28 07:58:20;;;;;;;6.67;3.10;;;;;;;;;;5049457;28;20427;-76
2021/03/28 08:01:18;;;;;;;7.80;2.60;;;12.00;91.90;;;;;;5043866;28;20541;-76
2021/03/28 08:04:21;;;;;;;8.60;3.63;;;12.00;91.60;;;;;;5047240;28;20471;-74
2021/03/28 08:06:57;;;;;;;6.40;3.13;;;12.00;92.10;;;;;;5058995;28;20462;-76
2021/03/28 08:09:53;;;;;;;5.20;2.40;;;12.10;91.30;;;;;;5052123;28;20545;-77
2021/03/28 08:12:33;;;;;;;6.53;1.97;;;12.20;91.00;;;;;;5053828;28;20451;-76
2021/03/28 08:15:17;;;;;;;3.17;2.87;;;12.40;90.20;;;;;;5052254;28;20512;-76
2021/03/28 08:18:08;;;;;;;6.90;1.90;;;12.50;88.60;;;;;;5049393;28;20423;-75
2021/03/28 08:21:02;;;;;;;9.60;2.73;;;12.50;88.50;;;;;;5053654;28;20986;-76
2021/03/28 08:23:29;;;;;;;5.27;1.70;;;12.60;88.50;;;;;;5045121;28;20463;-75
2021/03/28 08:26:33;;;;;;;9.10;2.33;;;12.80;86.20;;;;;;5053527;28;20487;-74
2021/03/28 08:29:26;;;;;;;6.33;1.90;;;13.00;85.60;;;;;;5052608;28;20489;-76
2021/03/28 08:32:17;;;;;;;3.77;1.63;;;12.90;84.30;;;;;;5037151;28;20885;-77
2021/03/28 08:34:59;;;;;;;10.53;2.40;;;12.70;83.90;;;;;;5052640;28;21070;-74
2021/03/28 08:37:37;;;;;;;6.70;2.20;;;12.40;83.10;;;;;;5060826;28;20434;-76
2021/03/28 08:40:18;;;;;;;6.10;2.10;;;12.30;85.60;;;;;;5052516;28;20472;-74
2021/03/28 08:43:22;;;;;;;5.50;2.70;;;12.30;84.60;;;;;;5034394;28;20431;-76
2021/03/28 08:46:07;;;;;;;6.10;2.47;;;12.20;84.50;;;;;;5048005;28;20536;-77
2021/03/28 08:49:05;;;;;;;3.50;1.60;;;12.30;85.60;;;;;;5043645;28;20474;-75
2021/03/28 08:52:10;;;;;;;5.10;1.70;;;12.40;84.30;;;;;;5053686;28;20429;-75
2021/03/28 08:55:14;;;;;;;5.43;2.20;;;12.60;84.30;;;;;;5038826;28;20458;-76
2021/03/28 08:58:02;;;;;;;5.80;1.83;;;12.80;83.60;;;;;;5042021;28;20453;-75
2021/03/28 09:00:37;;;;;;;6.53;2.50;;;12.80;83.10;;;;;;5040811;28;20472;-75
2021/03/28 09:03:41;;;;;;;7.20;3.13;;;12.80;83.00;;;;;;5049178;28;20423;-75
2021/03/28 09:06:15;;;;;;;6.63;2.70;;;12.80;84.30;;;;;;5053050;28;20504;-77
2021/03/28 09:08:54;;;;;;;4.00;1.93;;;12.90;84.20;;;;;;5051445;28;20466;-74
2021/03/28 09:11:51;;;;;;;5.60;1.83;;;13.20;82.00;;;;;;5044457;28;20434;-77
2021/03/28 09:14:47;;;;;;;6.93;2.10;;;13.40;79.70;;;;;;5030272;28;21046;-76
2021/03/28 09:17:22;;;;;;;5.33;2.30;;;13.40;78.40;;;;;;5032101;28;20435;-76
2021/03/28 09:19:51;;;;;;;8.30;2.43;;;13.40;78.20;;;;;;5031709;28;20473;-76
2021/03/28 09:22:42;;;;;;;7.23;2.03;;;13.40;76.80;;;;;;5031753;28;20464;-75
2021/03/28 09:25:59;;;;;;;5.33;2.27;;;13.40;77.70;;;;;;5029084;28;20459;-77
2021/03/28 09:29:04;;;;;;;7.23;2.23;;;13.20;79.30;;;;;;5029469;28;20482;-74
2021/03/28 09:31:45;;;;;;;7.93;2.00;;;13.30;80.00;;;;;;5032453;28;20443;-77
2021/03/28 09:34:39;;;;;;;17.63;3.10;;;13.50;78.40;;;;;;5031824;28;20468;-78
2021/03/28 09:37:27;;;;;;;6.53;2.00;;;13.70;77.90;;;;;;5025386;28;20850;-77
2021/03/28 09:40:16;;;;;;;5.27;2.60;;;13.90;75.50;;;;;;5050393;28;20473;-77
2021/03/28 09:43:12;;;;;;;6.33;2.03;;;14.00;73.60;;;;;;5056282;28;20438;-74
2021/03/28 09:45:47;;;;;;;4.87;2.27;;;14.10;73.00;;;;;;5031221;28;20455;-77
2021/03/28 09:49:02;;;;;;;2.80;1.40;;;14.30;70.90;;;;;;5032745;28;20459;-80
2021/03/28 09:51:40;;;;;;;4.47;1.97;;;14.20;67.40;;;;;;5012705;28;20470;-76
2021/03/28 09:54:16;;;;;;;4.77;1.40;;;14.10;66.00;;;;;;5032562;28;21058;-76
2021/03/28 09:56:49;;;;;;;4.37;1.60;;;14.20;65.80;;;;;;5032187;28;20444;-76
2021/03/28 09:59:56;;;;;;;5.37;2.00;;;14.30;65.10;;;;;;5024601;28;21046;-78
2021/03/28 10:02:46;;;;;;;8.90;1.80;;;14.40;63.20;;;;;;5032210;28;20440;-75
2021/03/28 10:05:31;;;;;;;4.70;2.03;;;14.30;64.00;;;;;;5048782;28;20536;-74
2021/03/28 10:08:11;;;;;;;6.60;2.03;;;14.30;65.30;;;;;;5046178;28;20439;-77
2021/03/28 10:10:58;;;;;;;4.20;1.50;;;14.20;63.80;;;;;;5032086;28;20452;-76
2021/03/28 10:13:48;;;;;;;4.07;2.00;;;14.40;64.60;;;;;;5029183;28;20472;-77
2021/03/28 10:16:30;;;;;;;4.70;1.50;;;14.50;64.10;;;;;;5030788;28;20874;-74
2021/03/28 10:19:05;;;;;;;6.27;1.57;;;14.60;63.90;;;;;;5031914;28;20494;-76
2021/03/28 10:21:46;;;;;;;5.77;1.67;;;14.60;62.40;;;;;;5031314;28;20524;-75
2021/03/28 10:24:31;;;;;;;7.57;2.23;;;14.60;58.80;;;;;;5021574;28;20474;-74
2021/03/28 10:27:16;;;;;;;6.60;1.47;;;14.40;60.70;;;;;;5025186;28;20444;-76
2021/03/28 10:29:49;;;;;;;5.70;1.40;;;14.40;60.70;;;;;;5022403;28;20519;-76
2021/03/28 10:32:25;;;;;;;6.60;1.70;;;14.50;59.40;;;;;;5021627;28;20433;-74
2021/03/28 10:35:34;;;;;;;6.57;1.90;;;14.50;61.90;;;;;;5018997;28;20471;-77
2021/03/28 10:38:36;;;;;;;5.77;2.40;;;14.40;58.60;;;;;;5026247;28;20934;-74
2021/03/28 10:41:23;;;;;;;2.63;1.20;;;14.40;61.10;;;;;;5021093;28;20447;-76
2021/03/28 10:44:19;;;;;;;5.27;1.70;;;14.40;60.00;;;;;;5029777;28;20499;-75
2021/03/28 10:46:58;;;;;;;2.67;1.63;;;14.50;60.40;;;;;;5030352;28;20471;-77
2021/03/28 10:49:52;;;;;;;4.80;1.90;;;14.50;60.00;;;;;;5030893;28;20475;-75
2021/03/28 10:52:57;;;;;;;5.80;2.03;;;14.50;58.70;;;;;;5030110;28;20498;-76
2021/03/28 10:55:52;;;;;;;3.47;1.80;;;14.40;61.30;;;;;;5025723;28;20897;-74
2021/03/28 10:58:57;;;;;;;3.13;1.60;;;14.40;60.30;;;;;;5028789;28;20539;-76
2021/03/28 11:01:52;;;;;;;7.30;2.00;;;14.40;58.60;;;;;;5030545;28;20440;-74
2021/03/28 11:05:19;;;;;;;6.47;1.90;;;14.40;60.90;;;;;;5023450;28;20838;-78
2021/03/28 11:08:15;;;;;;;3.57;1.80;;;14.30;59.40;;;;;;4935059;29;20459;-75
2021/03/28 11:10:52;;;;;;;3.80;2.23;;;14.30;60.40;;;;;;4953205;28;20491;-74
2021/03/28 11:13:37;;;;;;;8.30;2.47;;;14.40;58.70;;;;;;5022498;28;20542;-73
2021/03/28 11:16:37;;;;;;;6.03;1.93;;;14.40;59.50;;;;;;5019487;28;20985;-79
2021/03/28 11:19:41;;;;;;;3.03;2.30;;;14.40;60.60;;;;;;5040529;28;20467;-78
2021/03/28 11:22:41;;;;;;;7.57;2.00;;;14.50;58.70;;;;;;5050673;28;20514;-74
2021/03/28 11:25:19;;;;;;;4.67;2.50;;;14.60;59.20;;;;;;5027021;28;20471;-75
2021/03/28 11:28:01;;;;;;;4.60;2.07;;;14.60;58.80;;;;;;5050350;28;20538;-76
2021/03/28 11:30:44;;;;;;;7.80;2.30;;;14.50;58.70;;;;;;5048513;28;20462;-76
2021/03/28 11:33:27;;;;;;;3.33;1.67;;;14.70;59.70;;;;;;5051366;28;20902;-75
2021/03/28 11:36:02;;;;;;;6.00;1.87;;;14.80;58.90;;;;;;5049952;28;20565;-74
2021/03/28 11:38:34;;;;;;;5.80;2.00;;;14.90;58.60;;;;;;5048955;28;20996;-80
2021/03/28 11:41:07;;;;;;;3.00;1.87;;;14.90;58.60;;;;;;5051011;28;20429;-80
2021/03/28 11:43:52;;;;;;;3.60;1.87;;;15.00;59.10;;;;;;5047938;28;20455;-78
2021/03/28 11:46:28;;;;;;;6.03;2.50;;;15.00;58.50;;;;;;5046747;28;20545;-74
2021/03/28 11:48:55;;;;;;;5.87;2.53;;;15.10;56.80;;;;;;5029853;28;20521;-75
2021/03/28 11:51:27;;;;;;;4.50;2.00;;;15.10;57.20;;;;;;5033180;28;20968;-77
2021/03/28 11:54:12;;;;;;;5.77;2.00;;;15.00;59.10;;;;;;5048337;28;20981;-77
2021/03/28 11:56:56;;;;;;;6.40;2.60;;;15.10;58.10;;;;;;5036357;28;20514;-75
2021/03/28 11:59:23;;;;;;;3.43;1.73;;;15.10;58.20;;;;;;5048038;28;20560;-74
2021/03/28 12:01:56;;;;;;;6.70;1.93;;;15.30;59.40;;;;;;5049821;28;20432;-76
2021/03/28 12:04:43;;;;;;;3.40;1.77;;;15.40;59.40;;;;;;5043954;28;20838;-77
2021/03/28 12:07:34;;;;;;;4.37;2.00;;;15.40;57.40;;;;;;5049814;28;20466;-74
2021/03/28 12:10:04;;;;;;;7.27;2.60;;;15.40;57.50;;;;;;5049539;28;20464;-75
2021/03/28 12:12:39;;;;;;;4.57;2.10;;;15.50;58.90;;;;;;5033610;28;20477;-77
2021/03/28 12:15:43;;;;;;;3.13;1.60;;;15.60;58.70;;;;;;5033600;28;20472;-76
2021/03/28 12:21:07;;;;;;;9.60;2.00;;;15.70;57.00;;;;;;5052070;28;20997;-79
2021/03/28 12:23:42;;;;;;;4.70;1.93;;;15.70;55.90;;;;;;5048268;28;20532;-75
2021/03/28 12:26:37;;;;;;;6.07;2.27;;;15.60;54.50;;;;;;5050082;28;20806;-77
2021/03/28 12:29:05;;;;;;;6.27;1.73;;;15.50;55.50;;;;;;5045684;28;20478;-77
2021/03/28 12:31:48;;;;;;;7.63;1.70;;;15.40;56.20;;;;;;5050849;28;20436;-77
2021/03/28 12:34:26;;;;;;;6.53;1.83;;;15.30;57.00;;;;;;5046117;28;20492;-79
2021/03/28 12:36:58;;;;;;;6.03;2.00;;;15.30;57.50;;;;;;5046105;28;20474;-76
2021/03/28 12:39:30;;;;;;;4.57;2.30;;;15.30;57.70;;;;;;5049503;28;20602;-77
2021/03/28 12:42:02;;;;;;;7.60;2.00;;;15.20;56.10;;;;;;5051271;28;20474;-74
2021/03/28 12:44:31;;;;;;;5.83;2.30;;;15.20;55.10;;;;;;5038931;28;20812;-76
2021/03/28 12:47:18;;;;;;;4.97;1.63;;;15.10;56.30;;;;;;5051099;28;20431;-75
2021/03/28 12:49:50;;;;;;;6.00;1.93;;;15.10;55.00;;;;;;5050161;28;20539;-75
2021/03/28 12:52:23;;;;;;;4.47;1.80;;;15.10;55.40;;;;;;5048877;28;20463;-78
2021/03/28 12:54:52;;;;;;;4.03;2.00;;;15.20;55.90;;;;;;5048834;28;20458;-74
2021/03/28 12:57:35;;;;;;;4.63;1.47;;;15.20;55.50;;;;;;5053090;28;20430;-77
2021/03/28 13:00:20;;;;;;;5.70;2.07;;;15.20;56.90;;;;;;5052763;28;20470;-78
2021/03/28 13:02:49;;;;;;;2.50;1.70;;;15.30;55.50;;;;;;5054570;28;20945;-76
2021/03/28 13:05:32;;;;;;;4.70;1.90;;;15.40;56.80;;;;;;5052739;28;20464;-77
2021/03/28 13:08:18;;;;;;;6.00;2.30;;;15.50;57.20;;;;;;5049699;28;20458;-77
2021/03/28 13:10:46;;;;;;;2.23;1.40;;;15.60;55.90;;;;;;5054972;28;20950;-76
2021/03/28 13:13:15;;;;;;;5.00;1.70;;;15.70;55.30;;;;;;5052022;28;20460;-74
2021/03/28 13:15:51;;;;;;;4.77;2.27;;;15.70;54.00;;;;;;5046391;28;20472;-77
2021/03/28 13:18:39;;;;;;;4.67;1.77;;;15.70;53.80;;;;;;5053363;28;20472;-75
2021/03/28 13:21:20;;;;;;;5.83;1.70;;;15.70;53.80;;;;;;5050078;28;20870;-77
2021/03/28 13:23:47;;;;;;;2.67;1.40;;;15.70;55.50;;;;;;5052788;28;20982;-77
2021/03/28 13:26:31;;;;;;;6.03;1.97;;;15.80;54.00;;;;;;5054407;28;20446;-77
2021/03/28 13:29:35;;;;;;;2.93;1.70;;;16.00;53.50;;;;;;5052108;28;21013;-79
2021/03/28 13:32:20;;;;;;;5.73;2.17;;;16.00;53.00;;;;;;5051890;28;20891;-78
2021/03/28 13:34:47;;;;;;;3.77;1.93;;;16.00;51.60;;;;;;5035832;28;20481;-77
2021/03/28 13:37:39;;;;;;;6.23;2.87;;;15.90;52.80;;;;;;5062154;28;20848;-77
2021/03/28 13:40:14;;;;;;;7.00;2.30;;;15.80;54.50;;;;;;5050543;28;20515;-75
2021/03/28 13:43:01;;;;;;;3.80;1.77;;;15.90;54.00;;;;;;5052372;28;20422;-74
2021/03/28 13:45:39;;;;;;;4.43;1.37;;;15.80;54.10;;;;;;5036595;28;20471;-75
2021/03/28 13:48:09;;;;;;;5.50;1.80;;;15.80;52.30;;;;;;5053975;28;20452;-79
2021/03/28 13:50:45;;;;;;;3.40;1.63;;;15.60;52.50;;;;;;5055073;28;20437;-80
2021/03/28 13:53:39;;;;;;;5.73;2.30;;;15.50;52.90;;;;;;5033877;28;20479;-75
2021/03/28 13:56:34;;;;;;;5.77;2.47;;;15.50;53.70;;;;;;5052165;28;20472;-79
2021/03/28 13:59:08;;;;;;;3.60;2.30;;;15.50;53.20;;;;;;5052254;28;20468;-80
2021/03/28 14:01:41;;;;;;;2.60;1.60;;;15.40;56.00;;;;;;5053358;28;20527;-79
2021/03/28 14:04:38;;;;;;;6.80;2.10;;;15.40;54.50;;;;;;5051504;28;20986;-77
2021/03/28 14:07:18;;;;;;;5.40;2.00;;;15.40;55.30;;;;;;5050662;28;20459;-78
2021/03/28 14:09:53;;;;;;;6.90;2.00;;;15.40;55.10;;;;;;5032126;28;20999;-77
2021/03/28 14:12:47;;;;;;;3.20;1.83;;;15.40;55.10;;;;;;5053380;28;20440;-77
2021/03/28 14:15:28;;;;;;;3.10;1.43;;;15.40;55.60;;;;;;5044198;28;20560;-75
2021/03/28 14:17:59;;;;;;;3.70;1.90;;;15.50;55.30;;;;;;5053486;28;20468;-77
2021/03/28 14:20:43;;;;;;;3.80;2.30;;;15.50;54.90;;;;;;5053058;28;20459;-76
2021/03/28 14:23:10;;;;;;;3.83;1.60;;;15.40;57.20;;;;;;5049999;28;20488;-77
2021/03/28 14:26:17;;;;;;;4.50;2.03;;;15.40;56.30;;;;;;5052715;28;20523;-78
2021/03/28 14:28:49;;;;;;;3.00;1.67;;;15.40;56.20;;;;;;5050912;28;20523;-78
2021/03/28 14:31:25;;;;;;;6.00;1.90;;;15.40;56.60;;;;;;5052965;28;20521;-80
2021/03/28 14:34:01;;;;;;;7.63;2.23;;;15.50;55.50;;;;;;5066992;28;20473;-77